PWSweather.com
Personal Weather Stations
Station Observations
UWIDEPER1
Brown County, Depere, WI 54115

Brown CountyDepere, WI 54115

Lat: 44.44, Lon: -88.05

Elevation: 610

Station Type: Acurite 5in1

www.depereweather.com

High Low Average
Temperature 48.0°F8.9°C 26.1°F-3.3°C 39.7°F4.3°C
Dew Point 35.6°F2.0°C 23.1°F-4.9°C 28.4°F-2.0°C
Winds 11.5 mph 18.5 kmh Calm Calm 5.0 mph WSW8.0 kmh WSW
Wind Gusts 19.6 mph31.5 kmh -- 6.0 mph9.7 kmh
Humidity 90% 46% 65%
Pressure 30.47 in1031.8 mb 30.00 in1015.9 mb -
Precipitation 0.00 in0.0 mm - -
Hour Temp Dew Point Humidity Winds Wind Gusts Pressure Precip Precip Rate Daily Precip Total
12:00 AM 42.3°F5.7°C 35.2°F1.8°C 76% 1.2 mph NW1.9 kmh NW 2.3 mph3.7 kmh 29.98 in1015.2 mb - 0.00 in0.0 mm 0.00 in0.0 mm
12:10 AM 41.9°F5.5°C 34.9°F1.6°C 76% 1.2 mph NNE1.9 kmh NNE -- 29.98 in1015.2 mb - 0.00 in0.0 mm 0.00 in0.0 mm
12:15 AM 41.5°F5.3°C 34.5°F1.4°C 76% 1.2 mph WNW1.9 kmh WNW 2.3 mph3.7 kmh 29.98 in1015.2 mb - 0.00 in0.0 mm 0.00 in0.0 mm
12:20 AM 41.5°F5.3°C 34.5°F1.4°C 76% 2.3 mph NNW3.7 kmh NNW 2.3 mph3.7 kmh 29.98 in1015.2 mb - 0.00 in0.0 mm 0.00 in0.0 mm
12:25 AM 41.5°F5.3°C 34.5°F1.4°C 76% 1.2 mph W1.9 kmh W 3.5 mph5.6 kmh 29.98 in1015.2 mb - 0.00 in0.0 mm 0.00 in0.0 mm
12:30 AM 41.7°F5.4°C 34.7°F1.5°C 76% 1.2 mph NNW1.9 kmh NNW 2.3 mph3.7 kmh 29.98 in1015.2 mb - 0.00 in0.0 mm 0.00 in0.0 mm
12:35 AM 41.9°F5.5°C 34.9°F1.6°C 76% 1.2 mph WNW1.9 kmh WNW -- 29.98 in1015.2 mb - 0.00 in0.0 mm 0.00 in0.0 mm
12:40 AM 41.9°F5.5°C 34.9°F1.6°C 76% Calm Calm 2.3 mph3.7 kmh 29.98 in1015.2 mb - 0.00 in0.0 mm 0.00 in0.0 mm
12:45 AM 42.3°F5.7°C 35.2°F1.8°C 76% 2.3 mph NW3.7 kmh NW 3.5 mph5.6 kmh 29.98 in1015.2 mb - 0.00 in0.0 mm 0.00 in0.0 mm
12:50 AM 42.4°F5.8°C 35.4°F1.9°C 76% 2.3 mph WNW3.7 kmh WNW 3.5 mph5.6 kmh 29.99 in1015.6 mb - 0.00 in0.0 mm 0.00 in0.0 mm
12:55 AM 42.4°F5.8°C 35.4°F1.9°C 76% 2.3 mph WNW3.7 kmh WNW 4.6 mph7.4 kmh 29.99 in1015.6 mb - 0.00 in0.0 mm 0.00 in0.0 mm
01:00 AM 42.6°F5.9°C 35.6°F2.0°C 76% 3.5 mph W5.6 kmh W 4.6 mph7.4 kmh 30.01 in1016.3 mb - 0.00 in0.0 mm 0.00 in0.0 mm
01:10 AM 42.6°F5.9°C 35.6°F2.0°C 76% 3.5 mph NW5.6 kmh NW 4.6 mph7.4 kmh 30.01 in1016.3 mb - 0.00 in0.0 mm 0.00 in0.0 mm
01:15 AM 42.6°F5.9°C 35.2°F1.8°C 75% 3.5 mph WNW5.6 kmh WNW 3.5 mph5.6 kmh 30.01 in1016.3 mb - 0.00 in0.0 mm 0.00 in0.0 mm
01:20 AM 42.4°F5.8°C 35.1°F1.7°C 75% 3.5 mph WNW5.6 kmh WNW 5.8 mph9.3 kmh 30.01 in1016.3 mb - 0.00 in0.0 mm 0.00 in0.0 mm
01:25 AM 42.4°F5.8°C 35.1°F1.7°C 75% 4.6 mph WNW7.4 kmh WNW 8.1 mph13.0 kmh 30.00 in1015.9 mb - 0.00 in0.0 mm 0.00 in0.0 mm
01:30 AM 42.4°F5.8°C 35.1°F1.7°C 75% 3.5 mph NW5.6 kmh NW 2.3 mph3.7 kmh 30.00 in1015.9 mb - 0.00 in0.0 mm 0.00 in0.0 mm
01:35 AM 42.1°F5.6°C 34.7°F1.5°C 75% 2.3 mph WNW3.7 kmh WNW 2.3 mph3.7 kmh 30.01 in1016.3 mb - 0.00 in0.0 mm 0.00 in0.0 mm
01:40 AM 41.7°F5.4°C 34.4°F1.3°C 75% 3.5 mph N5.6 kmh N 3.5 mph5.6 kmh 30.01 in1016.3 mb - 0.00 in0.0 mm 0.00 in0.0 mm
01:45 AM 41.5°F5.3°C 34.2°F1.2°C 75% 4.6 mph NW7.4 kmh NW 4.6 mph7.4 kmh 30.01 in1016.3 mb - 0.00 in0.0 mm 0.00 in0.0 mm
01:50 AM 41.5°F5.3°C 34.2°F1.2°C 75% 4.6 mph NNW7.4 kmh NNW 6.9 mph11.1 kmh 30.01 in1016.3 mb - 0.00 in0.0 mm 0.00 in0.0 mm
01:55 AM 41.5°F5.3°C 34.2°F1.2°C 75% 4.6 mph WNW7.4 kmh WNW 4.6 mph7.4 kmh 30.01 in1016.3 mb - 0.00 in0.0 mm 0.00 in0.0 mm
02:00 AM 41.4°F5.2°C 34.0°F1.1°C 75% 4.6 mph W7.4 kmh W 4.6 mph7.4 kmh 30.01 in1016.3 mb - 0.00 in0.0 mm 0.00 in0.0 mm
02:10 AM 41.4°F5.2°C 33.7°F0.9°C 74% 3.5 mph W5.6 kmh W 6.9 mph11.1 kmh 30.01 in1016.3 mb - 0.00 in0.0 mm 0.00 in0.0 mm
02:15 AM 41.4°F5.2°C 33.4°F0.8°C 73% 4.6 mph NW7.4 kmh NW 5.8 mph9.3 kmh 30.01 in1016.3 mb - 0.00 in0.0 mm 0.00 in0.0 mm
02:20 AM 41.4°F5.2°C 33.4°F0.8°C 73% 4.6 mph W7.4 kmh W 9.2 mph14.8 kmh 30.02 in1016.6 mb - 0.00 in0.0 mm 0.00 in0.0 mm
02:25 AM 41.4°F5.2°C 33.4°F0.8°C 73% 4.6 mph WSW7.4 kmh WSW 6.9 mph11.1 kmh 30.02 in1016.6 mb - 0.00 in0.0 mm 0.00 in0.0 mm
02:30 AM 41.4°F5.2°C 33.4°F0.8°C 73% 4.6 mph WSW7.4 kmh WSW 5.8 mph9.3 kmh 30.02 in1016.6 mb - 0.00 in0.0 mm 0.00 in0.0 mm
02:35 AM 41.2°F5.1°C 33.2°F0.7°C 73% 3.5 mph W5.6 kmh W 4.6 mph7.4 kmh 30.02 in1016.6 mb - 0.00 in0.0 mm 0.00 in0.0 mm
02:40 AM 41.2°F5.1°C 33.2°F0.7°C 73% 5.8 mph WSW9.3 kmh WSW 5.8 mph9.3 kmh 30.03 in1016.9 mb - 0.00 in0.0 mm 0.00 in0.0 mm
02:45 AM 40.8°F4.9°C 32.8°F0.4°C 73% 8.1 mph WNW13.0 kmh WNW 6.9 mph11.1 kmh 30.03 in1016.9 mb - 0.00 in0.0 mm 0.00 in0.0 mm
02:50 AM 40.8°F4.9°C 32.1°F0.1°C 71% 5.8 mph W9.3 kmh W 9.2 mph14.8 kmh 30.03 in1016.9 mb - 0.00 in0.0 mm 0.00 in0.0 mm
02:55 AM 40.6°F4.8°C 32.0°F0.0°C 71% 5.8 mph NNE9.3 kmh NNE 5.8 mph9.3 kmh 30.03 in1016.9 mb - 0.00 in0.0 mm 0.00 in0.0 mm
03:00 AM 40.5°F4.7°C 32.5°F0.3°C 73% 4.6 mph W7.4 kmh W 6.9 mph11.1 kmh 30.04 in1017.3 mb - 0.00 in0.0 mm 0.00 in0.0 mm
03:10 AM 40.3°F4.6°C 31.3°F-0.4°C 70% 4.6 mph NW7.4 kmh NW 6.9 mph11.1 kmh 30.04 in1017.3 mb - 0.00 in0.0 mm 0.00 in0.0 mm
03:15 AM 39.9°F4.4°C 30.9°F-0.6°C 70% 4.6 mph WNW7.4 kmh WNW 11.5 mph18.5 kmh 30.04 in1017.3 mb - 0.00 in0.0 mm 0.00 in0.0 mm
03:20 AM 39.9°F4.4°C 30.9°F-0.6°C 70% 5.8 mph WSW9.3 kmh WSW 9.2 mph14.8 kmh 30.04 in1017.3 mb - 0.00 in0.0 mm 0.00 in0.0 mm
03:25 AM 39.7°F4.3°C 30.8°F-0.7°C 70% 5.8 mph WSW9.3 kmh WSW 9.2 mph14.8 kmh 30.04 in1017.3 mb - 0.00 in0.0 mm 0.00 in0.0 mm
03:30 AM 39.6°F4.2°C 30.6°F-0.8°C 70% 4.6 mph W7.4 kmh W 4.6 mph7.4 kmh 30.05 in1017.6 mb - 0.00 in0.0 mm 0.00 in0.0 mm
03:35 AM 39.2°F4.0°C 30.6°F-0.8°C 71% 3.5 mph WNW5.6 kmh WNW 4.6 mph7.4 kmh 30.05 in1017.6 mb - 0.00 in0.0 mm 0.00 in0.0 mm
03:40 AM 38.7°F3.7°C 30.1°F-1.1°C 71% 4.6 mph WNW7.4 kmh WNW 4.6 mph7.4 kmh 30.05 in1017.6 mb - 0.00 in0.0 mm 0.00 in0.0 mm
03:45 AM 38.1°F3.4°C 30.2°F-1.0°C 73% 4.6 mph W7.4 kmh W 6.9 mph11.1 kmh 30.05 in1017.6 mb - 0.00 in0.0 mm 0.00 in0.0 mm
03:50 AM 37.8°F3.2°C 29.9°F-1.2°C 73% 4.6 mph NW7.4 kmh NW 3.5 mph5.6 kmh 30.06 in1017.9 mb - 0.00 in0.0 mm 0.00 in0.0 mm
03:55 AM 37.6°F3.1°C 30.0°F-1.1°C 74% 3.5 mph WSW5.6 kmh WSW 9.2 mph14.8 kmh 30.06 in1017.9 mb - 0.00 in0.0 mm 0.00 in0.0 mm
04:00 AM 37.5°F3.1°C 29.9°F-1.2°C 74% 4.6 mph WNW7.4 kmh WNW 6.9 mph11.1 kmh 30.06 in1017.9 mb - 0.00 in0.0 mm 0.00 in0.0 mm
04:10 AM 37.2°F2.9°C 30.0°F-1.1°C 75% 4.6 mph NW7.4 kmh NW 5.8 mph9.3 kmh 30.06 in1017.9 mb - 0.00 in0.0 mm 0.00 in0.0 mm
04:15 AM 37.4°F3.0°C 30.2°F-1.0°C 75% 5.8 mph SW9.3 kmh SW 6.9 mph11.1 kmh 30.07 in1018.3 mb - 0.00 in0.0 mm 0.00 in0.0 mm
04:20 AM 37.8°F3.2°C 29.9°F-1.2°C 73% 6.9 mph W11.1 kmh W 8.1 mph13.0 kmh 30.07 in1018.3 mb - 0.00 in0.0 mm 0.00 in0.0 mm
04:25 AM 37.8°F3.2°C 28.9°F-1.7°C 70% 8.1 mph W13.0 kmh W 6.9 mph11.1 kmh 30.07 in1018.3 mb - 0.00 in0.0 mm 0.00 in0.0 mm
04:30 AM 37.9°F3.3°C 29.0°F-1.7°C 70% 6.9 mph SSW11.1 kmh SSW 6.9 mph11.1 kmh 30.07 in1018.3 mb - 0.00 in0.0 mm 0.00 in0.0 mm
04:35 AM 37.9°F3.3°C 29.0°F-1.7°C 70% 5.8 mph W9.3 kmh W 6.9 mph11.1 kmh 30.07 in1018.3 mb - 0.00 in0.0 mm 0.00 in0.0 mm
04:40 AM 37.9°F3.3°C 29.0°F-1.7°C 70% 5.8 mph W9.3 kmh W 4.6 mph7.4 kmh 30.09 in1019.0 mb - 0.00 in0.0 mm 0.00 in0.0 mm
04:45 AM 37.9°F3.3°C 28.7°F-1.8°C 69% 6.9 mph NW11.1 kmh NW 8.1 mph13.0 kmh 30.08 in1018.6 mb - 0.00 in0.0 mm 0.00 in0.0 mm
04:50 AM 37.9°F3.3°C 28.7°F-1.8°C 69% 5.8 mph NNW9.3 kmh NNW 11.5 mph18.5 kmh 30.09 in1019.0 mb - 0.00 in0.0 mm 0.00 in0.0 mm
04:55 AM 38.1°F3.4°C 28.5°F-1.9°C 68% 6.9 mph W11.1 kmh W 8.1 mph13.0 kmh 30.09 in1019.0 mb - 0.00 in0.0 mm 0.00 in0.0 mm
05:00 AM 38.1°F3.4°C 28.5°F-1.9°C 68% 5.8 mph W9.3 kmh W 11.5 mph18.5 kmh 30.09 in1019.0 mb - 0.00 in0.0 mm 0.00 in0.0 mm
05:10 AM 38.7°F3.7°C 29.0°F-1.7°C 68% 6.9 mph W11.1 kmh W 11.5 mph18.5 kmh 30.09 in1019.0 mb - 0.00 in0.0 mm 0.00 in0.0 mm
05:15 AM 38.7°F3.7°C 28.3°F-2.1°C 66% 6.9 mph NNW11.1 kmh NNW 10.4 mph16.7 kmh 30.10 in1019.3 mb - 0.00 in0.0 mm 0.00 in0.0 mm
05:20 AM 38.5°F3.6°C 28.1°F-2.2°C 66% 4.6 mph NNW7.4 kmh NNW 4.6 mph7.4 kmh 30.10 in1019.3 mb - 0.00 in0.0 mm 0.00 in0.0 mm
05:25 AM 38.5°F3.6°C 28.8°F-1.8°C 68% 5.8 mph W9.3 kmh W 10.4 mph16.7 kmh 30.10 in1019.3 mb - 0.00 in0.0 mm 0.00 in0.0 mm
05:30 AM 38.5°F3.6°C 28.8°F-1.8°C 68% 6.9 mph NW11.1 kmh NW 6.9 mph11.1 kmh 30.10 in1019.3 mb - 0.00 in0.0 mm 0.00 in0.0 mm
05:35 AM 38.4°F3.6°C 29.1°F-1.6°C 69% 4.6 mph W7.4 kmh W 4.6 mph7.4 kmh 30.10 in1019.3 mb - 0.00 in0.0 mm 0.00 in0.0 mm
05:40 AM 38.1°F3.4°C 28.8°F-1.8°C 69% 4.6 mph WNW7.4 kmh WNW 6.9 mph11.1 kmh 30.10 in1019.3 mb - 0.00 in0.0 mm 0.00 in0.0 mm
05:45 AM 38.0°F3.3°C 28.7°F-1.8°C 69% 4.6 mph WSW7.4 kmh WSW 11.5 mph18.5 kmh 30.11 in1019.6 mb - 0.00 in0.0 mm 0.00 in0.0 mm
05:50 AM 37.9°F3.3°C 28.7°F-1.8°C 69% 4.6 mph W7.4 kmh W 5.8 mph9.3 kmh 30.12 in1020.0 mb - 0.00 in0.0 mm 0.00 in0.0 mm
05:55 AM 37.9°F3.3°C 28.3°F-2.1°C 68% 5.8 mph W9.3 kmh W 11.5 mph18.5 kmh 30.12 in1020.0 mb - 0.00 in0.0 mm 0.00 in0.0 mm
06:00 AM 37.9°F3.3°C 28.3°F-2.1°C 68% 5.8 mph NW9.3 kmh NW 8.1 mph13.0 kmh 30.12 in1020.0 mb - 0.00 in0.0 mm 0.00 in0.0 mm
06:10 AM 37.9°F3.3°C 28.6°F-1.9°C 69% 4.6 mph NW7.4 kmh NW 5.8 mph9.3 kmh 30.12 in1020.0 mb - 0.00 in0.0 mm 0.00 in0.0 mm
06:15 AM 37.8°F3.2°C 28.5°F-1.9°C 69% 3.5 mph NW5.6 kmh NW 3.5 mph5.6 kmh 30.13 in1020.3 mb - 0.00 in0.0 mm 0.00 in0.0 mm
06:20 AM 37.8°F3.2°C 28.9°F-1.7°C 70% 4.6 mph WNW7.4 kmh WNW 5.8 mph9.3 kmh 30.12 in1020.0 mb - 0.00 in0.0 mm 0.00 in0.0 mm
06:25 AM 37.8°F3.2°C 28.9°F-1.7°C 70% 3.5 mph W5.6 kmh W 3.5 mph5.6 kmh 30.13 in1020.3 mb - 0.00 in0.0 mm 0.00 in0.0 mm
06:30 AM 37.8°F3.2°C 28.9°F-1.7°C 70% 3.5 mph NW5.6 kmh NW 8.1 mph13.0 kmh 30.13 in1020.3 mb - 0.00 in0.0 mm 0.00 in0.0 mm
06:35 AM 37.8°F3.2°C 28.9°F-1.7°C 70% 4.6 mph W7.4 kmh W 3.5 mph5.6 kmh 30.14 in1020.7 mb - 0.00 in0.0 mm 0.00 in0.0 mm
06:40 AM 37.8°F3.2°C 28.9°F-1.7°C 70% 4.6 mph NW7.4 kmh NW 6.9 mph11.1 kmh 30.13 in1020.3 mb - 0.00 in0.0 mm 0.00 in0.0 mm
06:45 AM 37.8°F3.2°C 28.9°F-1.7°C 70% 6.9 mph W11.1 kmh W 11.5 mph18.5 kmh 30.14 in1020.7 mb - 0.00 in0.0 mm 0.00 in0.0 mm
06:50 AM 37.8°F3.2°C 28.5°F-1.9°C 69% 10.4 mph WNW16.7 kmh WNW 11.5 mph18.5 kmh 30.14 in1020.7 mb - 0.00 in0.0 mm 0.00 in0.0 mm
06:55 AM 37.8°F3.2°C 28.5°F-1.9°C 69% 10.4 mph WNW16.7 kmh WNW 15.0 mph24.1 kmh 30.15 in1021.0 mb - 0.00 in0.0 mm 0.00 in0.0 mm
07:00 AM 37.8°F3.2°C 28.5°F-1.9°C 69% 6.9 mph WNW11.1 kmh WNW 6.9 mph11.1 kmh 30.15 in1021.0 mb - 0.00 in0.0 mm 0.00 in0.0 mm
07:10 AM 37.8°F3.2°C 28.9°F-1.7°C 70% 5.8 mph W9.3 kmh W 4.6 mph7.4 kmh 30.15 in1021.0 mb - 0.00 in0.0 mm 0.00 in0.0 mm
07:15 AM 37.8°F3.2°C 28.9°F-1.7°C 70% 4.6 mph WNW7.4 kmh WNW 6.9 mph11.1 kmh 30.15 in1021.0 mb - 0.00 in0.0 mm 0.00 in0.0 mm
07:20 AM 37.6°F3.1°C 28.3°F-2.1°C 69% 5.8 mph WNW9.3 kmh WNW 11.5 mph18.5 kmh 30.16 in1021.3 mb - 0.00 in0.0 mm 0.00 in0.0 mm
07:25 AM 37.5°F3.1°C 27.9°F-2.3°C 68% 9.2 mph W14.8 kmh W 10.4 mph16.7 kmh 30.16 in1021.3 mb - 0.00 in0.0 mm 0.00 in0.0 mm
07:30 AM 37.2°F2.9°C 27.6°F-2.4°C 68% 8.1 mph WSW13.0 kmh WSW 10.4 mph16.7 kmh 30.16 in1021.3 mb - 0.00 in0.0 mm 0.00 in0.0 mm
07:35 AM 37.0°F2.8°C 27.8°F-2.3°C 69% 5.8 mph W9.3 kmh W 6.9 mph11.1 kmh 30.17 in1021.7 mb - 0.00 in0.0 mm 0.00 in0.0 mm
07:40 AM 36.9°F2.7°C 28.0°F-2.2°C 70% 3.5 mph WSW5.6 kmh WSW 4.6 mph7.4 kmh 30.16 in1021.3 mb - 0.00 in0.0 mm 0.00 in0.0 mm
07:45 AM 36.9°F2.7°C 28.0°F-2.2°C 70% 3.5 mph W5.6 kmh W 3.5 mph5.6 kmh 30.17 in1021.7 mb - 0.00 in0.0 mm 0.00 in0.0 mm
07:50 AM 36.9°F2.7°C 28.0°F-2.2°C 70% 3.5 mph NW5.6 kmh NW 6.9 mph11.1 kmh 30.17 in1021.7 mb - 0.00 in0.0 mm 0.00 in0.0 mm
07:55 AM 37.0°F2.8°C 28.2°F-2.1°C 70% 5.8 mph E9.3 kmh E 9.2 mph14.8 kmh 30.18 in1022.0 mb - 0.00 in0.0 mm 0.00 in0.0 mm
08:00 AM 37.0°F2.8°C 28.2°F-2.1°C 70% 4.6 mph WSW7.4 kmh WSW 6.9 mph11.1 kmh 30.18 in1022.0 mb - 0.00 in0.0 mm 0.00 in0.0 mm
08:10 AM 37.3°F2.9°C 28.4°F-2.0°C 70% 3.5 mph W5.6 kmh W 3.5 mph5.6 kmh 30.18 in1022.0 mb - 0.00 in0.0 mm 0.00 in0.0 mm
08:15 AM 37.4°F3.0°C 28.5°F-1.9°C 70% 3.5 mph W5.6 kmh W 8.1 mph13.0 kmh 30.19 in1022.4 mb - 0.00 in0.0 mm 0.00 in0.0 mm
08:20 AM 37.4°F3.0°C 28.5°F-1.9°C 70% 4.6 mph W7.4 kmh W 6.9 mph11.1 kmh 30.20 in1022.7 mb - 0.00 in0.0 mm 0.00 in0.0 mm
08:25 AM 37.4°F3.0°C 28.5°F-1.9°C 70% 3.5 mph W5.6 kmh W 3.5 mph5.6 kmh 30.19 in1022.4 mb - 0.00 in0.0 mm 0.00 in0.0 mm
08:30 AM 37.4°F3.0°C 28.5°F-1.9°C 70% 3.5 mph WNW5.6 kmh WNW 4.6 mph7.4 kmh 30.19 in1022.4 mb - 0.00 in0.0 mm 0.00 in0.0 mm
08:35 AM 37.4°F3.0°C 28.5°F-1.9°C 70% 4.6 mph NW7.4 kmh NW 8.1 mph13.0 kmh 30.19 in1022.4 mb - 0.00 in0.0 mm 0.00 in0.0 mm
08:40 AM 37.2°F2.9°C 28.3°F-2.1°C 70% 5.8 mph WNW9.3 kmh WNW 11.5 mph18.5 kmh 30.19 in1022.4 mb - 0.00 in0.0 mm 0.00 in0.0 mm
08:45 AM 37.2°F2.9°C 28.3°F-2.1°C 70% 5.8 mph W9.3 kmh W 5.8 mph9.3 kmh 30.21 in1023.0 mb - 0.00 in0.0 mm 0.00 in0.0 mm
08:50 AM 37.4°F3.0°C 28.5°F-1.9°C 70% 3.5 mph WSW5.6 kmh WSW 8.1 mph13.0 kmh 30.21 in1023.0 mb - 0.00 in0.0 mm 0.00 in0.0 mm
08:55 AM 37.4°F3.0°C 28.2°F-2.1°C 69% 5.8 mph W9.3 kmh W 11.5 mph18.5 kmh 30.21 in1023.0 mb - 0.00 in0.0 mm 0.00 in0.0 mm
09:00 AM 37.6°F3.1°C 27.2°F-2.7°C 66% 9.2 mph N14.8 kmh N 11.5 mph18.5 kmh 30.21 in1023.0 mb - 0.00 in0.0 mm 0.00 in0.0 mm
09:10 AM 38.0°F3.3°C 27.6°F-2.4°C 66% 6.9 mph WNW11.1 kmh WNW 9.2 mph14.8 kmh 30.21 in1023.0 mb - 0.00 in0.0 mm 0.00 in0.0 mm
09:15 AM 38.5°F3.6°C 27.7°F-2.4°C 65% 5.8 mph W9.3 kmh W 10.4 mph16.7 kmh 30.21 in1023.0 mb - 0.00 in0.0 mm 0.00 in0.0 mm
09:20 AM 38.7°F3.7°C 27.9°F-2.3°C 65% 6.9 mph NNW11.1 kmh NNW 11.5 mph18.5 kmh 30.21 in1023.0 mb - 0.00 in0.0 mm 0.00 in0.0 mm
09:25 AM 38.7°F3.7°C 27.1°F-2.7°C 63% 8.1 mph NW13.0 kmh NW 5.8 mph9.3 kmh 30.21 in1023.0 mb - 0.00 in0.0 mm 0.00 in0.0 mm
09:30 AM 39.0°F3.9°C 27.5°F-2.5°C 63% 6.9 mph W11.1 kmh W 11.5 mph18.5 kmh 30.21 in1023.0 mb - 0.00 in0.0 mm 0.00 in0.0 mm
09:35 AM 39.0°F3.9°C 27.5°F-2.5°C 63% 9.2 mph W14.8 kmh W 6.9 mph11.1 kmh 30.21 in1023.0 mb - 0.00 in0.0 mm 0.00 in0.0 mm
09:40 AM 39.2°F4.0°C 27.3°F-2.6°C 62% 8.1 mph WNW13.0 kmh WNW 16.1 mph25.9 kmh 30.21 in1023.0 mb - 0.00 in0.0 mm 0.00 in0.0 mm
09:45 AM 39.4°F4.1°C 27.8°F-2.3°C 63% 8.1 mph W13.0 kmh W 12.7 mph20.4 kmh 30.23 in1023.7 mb - 0.00 in0.0 mm 0.00 in0.0 mm
09:50 AM 39.7°F4.3°C 28.2°F-2.1°C 63% 5.8 mph WSW9.3 kmh WSW 9.2 mph14.8 kmh 30.21 in1023.0 mb - 0.00 in0.0 mm 0.00 in0.0 mm
09:55 AM 39.9°F4.4°C 27.9°F-2.3°C 62% 8.1 mph WNW13.0 kmh WNW 11.5 mph18.5 kmh 30.23 in1023.7 mb - 0.00 in0.0 mm 0.00 in0.0 mm
10:00 AM 40.5°F4.7°C 28.1°F-2.2°C 61% 8.1 mph W13.0 kmh W 8.1 mph13.0 kmh 30.23 in1023.7 mb - 0.00 in0.0 mm 0.00 in0.0 mm
10:10 AM 41.9°F5.5°C 29.0°F-1.7°C 60% 4.6 mph SW7.4 kmh SW 9.2 mph14.8 kmh 30.23 in1023.7 mb - 0.00 in0.0 mm 0.00 in0.0 mm
10:15 AM 42.2°F5.7°C 28.9°F-1.7°C 59% 6.9 mph W11.1 kmh W 9.2 mph14.8 kmh 30.23 in1023.7 mb - 0.00 in0.0 mm 0.00 in0.0 mm
10:20 AM 42.4°F5.8°C 28.7°F-1.8°C 58% 6.9 mph WSW11.1 kmh WSW 8.1 mph13.0 kmh 30.24 in1024.0 mb - 0.00 in0.0 mm 0.00 in0.0 mm
10:25 AM 42.4°F5.8°C 28.7°F-1.8°C 58% 6.9 mph WSW11.1 kmh WSW 4.6 mph7.4 kmh 30.23 in1023.7 mb - 0.00 in0.0 mm 0.00 in0.0 mm
10:30 AM 43.2°F6.2°C 28.1°F-2.2°C 55% 4.6 mph WSW7.4 kmh WSW 9.2 mph14.8 kmh 30.23 in1023.7 mb - 0.00 in0.0 mm 0.00 in0.0 mm
10:35 AM 42.9°F6.1°C 27.8°F-2.3°C 55% 5.8 mph W9.3 kmh W 8.1 mph13.0 kmh 30.23 in1023.7 mb - 0.00 in0.0 mm 0.00 in0.0 mm
10:40 AM 43.2°F6.2°C 28.1°F-2.2°C 55% 5.8 mph WSW9.3 kmh WSW 8.1 mph13.0 kmh 30.23 in1023.7 mb - 0.00 in0.0 mm 0.00 in0.0 mm
10:45 AM 43.2°F6.2°C 27.6°F-2.4°C 54% 8.1 mph WSW13.0 kmh WSW 11.5 mph18.5 kmh 30.23 in1023.7 mb - 0.00 in0.0 mm 0.00 in0.0 mm
10:50 AM 43.3°F6.3°C 27.3°F-2.6°C 53% 6.9 mph W11.1 kmh W 10.4 mph16.7 kmh 30.23 in1023.7 mb - 0.00 in0.0 mm 0.00 in0.0 mm
10:55 AM 44.1°F6.7°C 28.5°F-1.9°C 54% 5.8 mph W9.3 kmh W 4.6 mph7.4 kmh 30.23 in1023.7 mb - 0.00 in0.0 mm 0.00 in0.0 mm
11:00 AM 44.3°F6.8°C 28.6°F-1.9°C 54% 5.8 mph W9.3 kmh W 4.6 mph7.4 kmh 30.23 in1023.7 mb - 0.00 in0.0 mm 0.00 in0.0 mm
11:10 AM 45.1°F7.3°C 29.5°F-1.4°C 54% 3.5 mph W5.6 kmh W 9.2 mph14.8 kmh 30.23 in1023.7 mb - 0.00 in0.0 mm 0.00 in0.0 mm
11:15 AM 45.0°F7.2°C 27.9°F-2.3°C 51% 6.9 mph WSW11.1 kmh WSW 10.4 mph16.7 kmh 30.23 in1023.7 mb - 0.00 in0.0 mm 0.00 in0.0 mm
11:20 AM 44.9°F7.2°C 27.8°F-2.3°C 51% 8.1 mph WSW13.0 kmh WSW 8.1 mph13.0 kmh 30.23 in1023.7 mb - 0.00 in0.0 mm 0.00 in0.0 mm
11:25 AM 45.0°F7.2°C 28.8°F-1.8°C 53% 6.9 mph WNW11.1 kmh WNW 11.5 mph18.5 kmh 30.23 in1023.7 mb - 0.00 in0.0 mm 0.00 in0.0 mm
11:30 AM 45.5°F7.5°C 28.4°F-2.0°C 51% 8.1 mph W13.0 kmh W 10.4 mph16.7 kmh 30.24 in1024.0 mb - 0.00 in0.0 mm 0.00 in0.0 mm
11:35 AM 45.7°F7.6°C 29.5°F-1.4°C 53% 6.9 mph WSW11.1 kmh WSW 9.2 mph14.8 kmh 30.24 in1024.0 mb - 0.00 in0.0 mm 0.00 in0.0 mm
11:40 AM 45.8°F7.7°C 29.2°F-1.6°C 52% 8.1 mph SW13.0 kmh SW 8.1 mph13.0 kmh 30.24 in1024.0 mb - 0.00 in0.0 mm 0.00 in0.0 mm
11:45 AM 46.1°F7.8°C 28.5°F-1.9°C 50% 5.8 mph WSW9.3 kmh WSW 9.2 mph14.8 kmh 30.24 in1024.0 mb - 0.00 in0.0 mm 0.00 in0.0 mm
11:50 AM 45.9°F7.7°C 28.7°F-1.8°C 51% 8.1 mph W13.0 kmh W 9.2 mph14.8 kmh 30.24 in1024.0 mb - 0.00 in0.0 mm 0.00 in0.0 mm
11:55 AM 47.3°F8.5°C 30.0°F-1.1°C 51% 5.8 mph WSW9.3 kmh WSW 4.6 mph7.4 kmh 30.25 in1024.4 mb - 0.00 in0.0 mm 0.00 in0.0 mm
12:00 PM 46.4°F8.0°C 29.7°F-1.3°C 52% 6.9 mph SE11.1 kmh SE 11.5 mph18.5 kmh 30.25 in1024.4 mb - 0.00 in0.0 mm 0.00 in0.0 mm
12:10 PM 45.1°F7.3°C 29.4°F-1.4°C 54% 6.9 mph NW11.1 kmh NW 11.5 mph18.5 kmh 30.25 in1024.4 mb - 0.00 in0.0 mm 0.00 in0.0 mm
12:15 PM 45.8°F7.7°C 29.6°F-1.3°C 53% 11.5 mph W18.5 kmh W 13.8 mph22.2 kmh 30.25 in1024.4 mb - 0.00 in0.0 mm 0.00 in0.0 mm
12:20 PM 44.8°F7.1°C 29.1°F-1.6°C 54% 8.1 mph WSW13.0 kmh WSW 11.5 mph18.5 kmh 30.25 in1024.4 mb - 0.00 in0.0 mm 0.00 in0.0 mm
12:25 PM 45.1°F7.3°C 29.9°F-1.2°C 55% 6.9 mph SW11.1 kmh SW 10.4 mph16.7 kmh 30.25 in1024.4 mb - 0.00 in0.0 mm 0.00 in0.0 mm
12:30 PM 45.0°F7.2°C 29.8°F-1.2°C 55% 6.9 mph WSW11.1 kmh WSW 11.5 mph18.5 kmh 30.25 in1024.4 mb - 0.00 in0.0 mm 0.00 in0.0 mm
12:35 PM 45.1°F7.3°C 29.5°F-1.4°C 54% 9.2 mph SW14.8 kmh SW 9.2 mph14.8 kmh 30.25 in1024.4 mb - 0.00 in0.0 mm 0.00 in0.0 mm
12:40 PM 45.8°F7.7°C 30.0°F-1.1°C 54% 8.1 mph W13.0 kmh W 12.7 mph20.4 kmh 30.25 in1024.4 mb - 0.00 in0.0 mm 0.00 in0.0 mm
12:45 PM 46.5°F8.1°C 30.3°F-0.9°C 53% 8.1 mph W13.0 kmh W 8.1 mph13.0 kmh 30.25 in1024.4 mb - 0.00 in0.0 mm 0.00 in0.0 mm
12:50 PM 47.6°F8.7°C 30.4°F-0.9°C 51% 6.9 mph WNW11.1 kmh WNW 11.5 mph18.5 kmh 30.25 in1024.4 mb - 0.00 in0.0 mm 0.00 in0.0 mm
12:55 PM 47.7°F8.7°C 30.4°F-0.9°C 51% 6.9 mph NW11.1 kmh NW 10.4 mph16.7 kmh 30.24 in1024.0 mb - 0.00 in0.0 mm 0.00 in0.0 mm
01:00 PM 47.5°F8.6°C 30.2°F-1.0°C 51% 6.9 mph 11.1 kmh 8.1 mph13.0 kmh 30.25 in1024.4 mb - 0.00 in0.0 mm 0.00 in0.0 mm
01:10 PM 44.9°F7.2°C 29.7°F-1.3°C 55% 5.8 mph E9.3 kmh E 9.2 mph14.8 kmh 30.25 in1024.4 mb - 0.00 in0.0 mm 0.00 in0.0 mm
01:15 PM 46.6°F8.1°C 29.4°F-1.4°C 51% 9.2 mph WNW14.8 kmh WNW 15.0 mph24.1 kmh 30.24 in1024.0 mb - 0.00 in0.0 mm 0.00 in0.0 mm
01:20 PM 47.1°F8.4°C 29.8°F-1.2°C 51% 9.2 mph N14.8 kmh N 12.7 mph20.4 kmh 30.25 in1024.4 mb - 0.00 in0.0 mm 0.00 in0.0 mm
01:25 PM 47.2°F8.4°C 29.5°F-1.4°C 50% 9.2 mph NNW14.8 kmh NNW 16.1 mph25.9 kmh 30.25 in1024.4 mb - 0.00 in0.0 mm 0.00 in0.0 mm
01:30 PM 47.1°F8.4°C 29.4°F-1.4°C 50% 8.1 mph SW13.0 kmh SW 9.2 mph14.8 kmh 30.24 in1024.0 mb - 0.00 in0.0 mm 0.00 in0.0 mm
01:35 PM 47.5°F8.6°C 29.8°F-1.2°C 50% 8.1 mph NW13.0 kmh NW 12.7 mph20.4 kmh 30.25 in1024.4 mb - 0.00 in0.0 mm 0.00 in0.0 mm
01:40 PM 47.4°F8.6°C 29.7°F-1.3°C 50% 11.5 mph WSW18.5 kmh WSW 16.1 mph25.9 kmh 30.25 in1024.4 mb - 0.00 in0.0 mm 0.00 in0.0 mm
01:45 PM 47.7°F8.7°C 29.4°F-1.4°C 49% 11.5 mph WSW18.5 kmh WSW 11.5 mph18.5 kmh 30.25 in1024.4 mb - 0.00 in0.0 mm 0.00 in0.0 mm
01:50 PM 48.0°F8.9°C 29.7°F-1.3°C 49% 10.4 mph W16.7 kmh W 15.0 mph24.1 kmh 30.25 in1024.4 mb - 0.00 in0.0 mm 0.00 in0.0 mm
01:55 PM 47.4°F8.6°C 29.7°F-1.3°C 50% 9.2 mph WNW14.8 kmh WNW 9.2 mph14.8 kmh 30.26 in1024.7 mb - 0.00 in0.0 mm 0.00 in0.0 mm
02:00 PM 47.0°F8.3°C 29.8°F-1.2°C 51% 5.8 mph W9.3 kmh W 9.2 mph14.8 kmh 30.26 in1024.7 mb - 0.00 in0.0 mm 0.00 in0.0 mm
02:10 PM 47.1°F8.4°C 29.9°F-1.2°C 51% 9.2 mph WNW14.8 kmh WNW 13.8 mph22.2 kmh 30.26 in1024.7 mb - 0.00 in0.0 mm 0.00 in0.0 mm
02:15 PM 47.2°F8.4°C 30.0°F-1.1°C 51% 6.9 mph W11.1 kmh W 11.5 mph18.5 kmh 30.27 in1025.1 mb - 0.00 in0.0 mm 0.00 in0.0 mm
02:20 PM 47.5°F8.6°C 29.7°F-1.3°C 50% 9.2 mph WSW14.8 kmh WSW 10.4 mph16.7 kmh 30.26 in1024.7 mb - 0.00 in0.0 mm 0.00 in0.0 mm
02:25 PM 47.4°F8.6°C 29.7°F-1.3°C 50% 5.8 mph NW9.3 kmh NW 10.4 mph16.7 kmh 30.26 in1024.7 mb - 0.00 in0.0 mm 0.00 in0.0 mm
02:30 PM 47.5°F8.6°C 29.7°F-1.3°C 50% 8.1 mph W13.0 kmh W 10.4 mph16.7 kmh 30.27 in1025.1 mb - 0.00 in0.0 mm 0.00 in0.0 mm
02:35 PM 47.5°F8.6°C 29.7°F-1.3°C 50% 6.9 mph W11.1 kmh W 18.4 mph29.6 kmh 30.27 in1025.1 mb - 0.00 in0.0 mm 0.00 in0.0 mm
02:40 PM 47.1°F8.4°C 29.4°F-1.4°C 50% 10.4 mph W16.7 kmh W 19.6 mph31.5 kmh 30.27 in1025.1 mb - 0.00 in0.0 mm 0.00 in0.0 mm
02:45 PM 46.9°F8.3°C 29.2°F-1.6°C 50% 10.4 mph N16.7 kmh N 11.5 mph18.5 kmh 30.27 in1025.1 mb - 0.00 in0.0 mm 0.00 in0.0 mm
02:50 PM 46.9°F8.3°C 28.8°F-1.8°C 49% 8.1 mph NW13.0 kmh NW 11.5 mph18.5 kmh 30.27 in1025.1 mb - 0.00 in0.0 mm 0.00 in0.0 mm
02:55 PM 47.0°F8.3°C 29.3°F-1.5°C 50% 6.9 mph NNW11.1 kmh NNW 6.9 mph11.1 kmh 30.28 in1025.4 mb - 0.00 in0.0 mm 0.00 in0.0 mm
03:00 PM 46.8°F8.2°C 29.6°F-1.3°C 51% 8.1 mph SW13.0 kmh SW 11.5 mph18.5 kmh 30.28 in1025.4 mb - 0.00 in0.0 mm 0.00 in0.0 mm
03:10 PM 46.9°F8.3°C 28.7°F-1.8°C 49% 6.9 mph W11.1 kmh W 5.8 mph9.3 kmh 30.28 in1025.4 mb - 0.00 in0.0 mm 0.00 in0.0 mm
03:15 PM 46.8°F8.2°C 29.1°F-1.6°C 50% 6.9 mph NNW11.1 kmh NNW 13.8 mph22.2 kmh 30.29 in1025.7 mb - 0.00 in0.0 mm 0.00 in0.0 mm
03:20 PM 46.8°F8.2°C 29.1°F-1.6°C 50% 6.9 mph NNW11.1 kmh NNW 13.8 mph22.2 kmh 30.28 in1025.4 mb - 0.00 in0.0 mm 0.00 in0.0 mm
03:25 PM 46.8°F8.2°C 28.7°F-1.8°C 49% 8.1 mph WNW13.0 kmh WNW 13.8 mph22.2 kmh 30.29 in1025.7 mb - 0.00 in0.0 mm 0.00 in0.0 mm
03:30 PM 47.2°F8.4°C 28.5°F-1.9°C 48% 8.1 mph W13.0 kmh W 16.1 mph25.9 kmh 30.29 in1025.7 mb - 0.00 in0.0 mm 0.00 in0.0 mm
03:35 PM 46.9°F8.3°C 28.7°F-1.8°C 49% 6.9 mph WSW11.1 kmh WSW 9.2 mph14.8 kmh 30.30 in1026.1 mb - 0.00 in0.0 mm 0.00 in0.0 mm
03:40 PM 47.1°F8.4°C 28.9°F-1.7°C 49% 8.1 mph WNW13.0 kmh WNW 11.5 mph18.5 kmh 30.29 in1025.7 mb - 0.00 in0.0 mm 0.00 in0.0 mm
03:45 PM 47.1°F8.4°C 28.9°F-1.7°C 49% 8.1 mph W13.0 kmh W 11.5 mph18.5 kmh 30.30 in1026.1 mb - 0.00 in0.0 mm 0.00 in0.0 mm
03:50 PM 47.1°F8.4°C 28.9°F-1.7°C 49% 5.8 mph NNW9.3 kmh NNW 5.8 mph9.3 kmh 30.30 in1026.1 mb - 0.00 in0.0 mm 0.00 in0.0 mm
03:55 PM 47.3°F8.5°C 28.6°F-1.9°C 48% 5.8 mph E9.3 kmh E 6.9 mph11.1 kmh 30.29 in1025.7 mb - 0.00 in0.0 mm 0.00 in0.0 mm
04:00 PM 47.4°F8.6°C 28.7°F-1.8°C 48% 6.9 mph NW11.1 kmh NW 4.6 mph7.4 kmh 30.30 in1026.1 mb - 0.00 in0.0 mm 0.00 in0.0 mm
04:10 PM 47.3°F8.5°C 27.5°F-2.5°C 46% 6.9 mph NW11.1 kmh NW 8.1 mph13.0 kmh 30.29 in1025.7 mb - 0.00 in0.0 mm 0.00 in0.0 mm
04:15 PM 46.8°F8.2°C 29.1°F-1.6°C 50% 5.8 mph W9.3 kmh W 3.5 mph5.6 kmh 30.30 in1026.1 mb - 0.00 in0.0 mm 0.00 in0.0 mm
04:20 PM 47.1°F8.4°C 29.4°F-1.4°C 50% 4.6 mph W7.4 kmh W 9.2 mph14.8 kmh 30.30 in1026.1 mb - 0.00 in0.0 mm 0.00 in0.0 mm
04:25 PM 47.1°F8.4°C 29.4°F-1.4°C 50% 6.9 mph NW11.1 kmh NW 11.5 mph18.5 kmh 30.30 in1026.1 mb - 0.00 in0.0 mm 0.00 in0.0 mm
04:30 PM 46.9°F8.3°C 28.3°F-2.1°C 48% 6.9 mph W11.1 kmh W 9.2 mph14.8 kmh 30.30 in1026.1 mb - 0.00 in0.0 mm 0.00 in0.0 mm
04:35 PM 46.9°F8.3°C 28.8°F-1.8°C 49% 4.6 mph NW7.4 kmh NW 6.9 mph11.1 kmh 30.30 in1026.1 mb - 0.00 in0.0 mm 0.00 in0.0 mm
04:40 PM 46.6°F8.1°C 28.4°F-2.0°C 49% 5.8 mph NW9.3 kmh NW 6.9 mph11.1 kmh 30.30 in1026.1 mb - 0.00 in0.0 mm 0.00 in0.0 mm
04:45 PM 46.8°F8.2°C 28.6°F-1.9°C 49% 5.8 mph NW9.3 kmh NW 6.9 mph11.1 kmh 30.31 in1026.4 mb - 0.00 in0.0 mm 0.00 in0.0 mm
04:50 PM 46.8°F8.2°C 28.6°F-1.9°C 49% 5.8 mph N9.3 kmh N 8.1 mph13.0 kmh 30.31 in1026.4 mb - 0.00 in0.0 mm 0.00 in0.0 mm
04:55 PM 46.8°F8.2°C 27.0°F-2.8°C 46% 8.1 mph SW13.0 kmh SW 10.4 mph16.7 kmh 30.31 in1026.4 mb - 0.00 in0.0 mm 0.00 in0.0 mm
05:00 PM 45.9°F7.7°C 26.7°F-2.9°C 47% 5.8 mph S9.3 kmh S 4.6 mph7.4 kmh 30.30 in1026.1 mb - 0.00 in0.0 mm 0.00 in0.0 mm
05:10 PM 45.9°F7.7°C 27.8°F-2.3°C 49% 4.6 mph NW7.4 kmh NW 8.1 mph13.0 kmh 30.30 in1026.1 mb - 0.00 in0.0 mm 0.00 in0.0 mm
05:15 PM 45.7°F7.6°C 27.7°F-2.4°C 49% 4.6 mph W7.4 kmh W 5.8 mph9.3 kmh 30.30 in1026.1 mb - 0.00 in0.0 mm 0.00 in0.0 mm
05:20 PM 45.7°F7.6°C 27.6°F-2.4°C 49% 5.8 mph NW9.3 kmh NW 11.5 mph18.5 kmh 30.30 in1026.1 mb - 0.00 in0.0 mm 0.00 in0.0 mm
05:25 PM 45.7°F7.6°C 27.6°F-2.4°C 49% 5.8 mph NW9.3 kmh NW 3.5 mph5.6 kmh 30.31 in1026.4 mb - 0.00 in0.0 mm 0.00 in0.0 mm
05:30 PM 45.0°F7.2°C 27.4°F-2.6°C 50% 3.5 mph SW5.6 kmh SW 4.6 mph7.4 kmh 30.31 in1026.4 mb - 0.00 in0.0 mm 0.00 in0.0 mm
05:35 PM 44.8°F7.1°C 27.3°F-2.6°C 50% 4.6 mph W7.4 kmh W 5.8 mph9.3 kmh 30.31 in1026.4 mb - 0.00 in0.0 mm 0.00 in0.0 mm
05:40 PM 44.4°F6.9°C 26.9°F-2.8°C 50% 4.6 mph NW7.4 kmh NW 9.2 mph14.8 kmh 30.31 in1026.4 mb - 0.00 in0.0 mm 0.00 in0.0 mm
05:45 PM 44.2°F6.8°C 26.8°F-2.9°C 50% 4.6 mph W7.4 kmh W 3.5 mph5.6 kmh 30.32 in1026.8 mb - 0.00 in0.0 mm 0.00 in0.0 mm
05:50 PM 43.9°F6.6°C 27.8°F-2.3°C 53% 2.3 mph N3.7 kmh N 3.5 mph5.6 kmh 30.31 in1026.4 mb - 0.00 in0.0 mm 0.00 in0.0 mm
05:55 PM 43.3°F6.3°C 27.3°F-2.6°C 53% 3.5 mph W5.6 kmh W 5.8 mph9.3 kmh 30.32 in1026.8 mb - 0.00 in0.0 mm 0.00 in0.0 mm
06:00 PM 43.2°F6.2°C 27.6°F-2.4°C 54% 2.3 mph WSW3.7 kmh WSW 2.3 mph3.7 kmh 30.34 in1027.4 mb - 0.00 in0.0 mm 0.00 in0.0 mm
06:10 PM 42.4°F5.8°C 27.4°F-2.6°C 55% 3.5 mph W5.6 kmh W 3.5 mph5.6 kmh 30.33 in1027.1 mb - 0.00 in0.0 mm 0.00 in0.0 mm
06:15 PM 42.1°F5.6°C 27.1°F-2.7°C 55% 1.2 mph WSW1.9 kmh WSW 2.3 mph3.7 kmh 30.34 in1027.4 mb - 0.00 in0.0 mm 0.00 in0.0 mm
06:20 PM 41.8°F5.4°C 27.2°F-2.7°C 56% 2.3 mph NW3.7 kmh NW 3.5 mph5.6 kmh 30.34 in1027.4 mb - 0.00 in0.0 mm 0.00 in0.0 mm
06:25 PM 41.5°F5.3°C 27.8°F-2.3°C 58% 2.3 mph WNW3.7 kmh WNW 5.8 mph9.3 kmh 30.34 in1027.4 mb - 0.00 in0.0 mm 0.00 in0.0 mm
06:30 PM 41.2°F5.1°C 27.9°F-2.3°C 59% 2.3 mph WNW3.7 kmh WNW 3.5 mph5.6 kmh 30.34 in1027.4 mb - 0.00 in0.0 mm 0.00 in0.0 mm
06:35 PM 41.2°F5.1°C 27.5°F-2.5°C 58% 3.5 mph NW5.6 kmh NW 3.5 mph5.6 kmh 30.34 in1027.4 mb - 0.00 in0.0 mm 0.00 in0.0 mm
06:40 PM 41.2°F5.1°C 27.5°F-2.5°C 58% 3.5 mph N5.6 kmh N 3.5 mph5.6 kmh 30.34 in1027.4 mb - 0.00 in0.0 mm 0.00 in0.0 mm
06:45 PM 40.8°F4.9°C 27.6°F-2.4°C 59% 3.5 mph NW5.6 kmh NW 4.6 mph7.4 kmh 30.36 in1028.1 mb - 0.00 in0.0 mm 0.00 in0.0 mm
06:50 PM 40.8°F4.9°C 27.6°F-2.4°C 59% 2.3 mph NW3.7 kmh NW 3.5 mph5.6 kmh 30.36 in1028.1 mb - 0.00 in0.0 mm 0.00 in0.0 mm
06:55 PM 40.6°F4.8°C 27.8°F-2.3°C 60% 2.3 mph NNW3.7 kmh NNW 3.5 mph5.6 kmh 30.36 in1028.1 mb - 0.00 in0.0 mm 0.00 in0.0 mm
07:00 PM 40.5°F4.7°C 27.7°F-2.4°C 60% 2.3 mph W3.7 kmh W 3.5 mph5.6 kmh 30.36 in1028.1 mb - 0.00 in0.0 mm 0.00 in0.0 mm
07:10 PM 39.9°F4.4°C 27.5°F-2.5°C 61% 1.2 mph NE1.9 kmh NE 1.2 mph1.9 kmh 30.36 in1028.1 mb - 0.00 in0.0 mm 0.00 in0.0 mm
07:15 PM 39.6°F4.2°C 28.0°F-2.2°C 63% 1.2 mph SW1.9 kmh SW -- 30.37 in1028.4 mb - 0.00 in0.0 mm 0.00 in0.0 mm
07:20 PM 38.9°F3.8°C 27.4°F-2.6°C 63% Calm Calm 1.2 mph1.9 kmh 30.37 in1028.4 mb - 0.00 in0.0 mm 0.00 in0.0 mm
07:25 PM 38.1°F3.4°C 27.4°F-2.6°C 65% 1.2 mph NNW1.9 kmh NNW 1.2 mph1.9 kmh 30.38 in1028.8 mb - 0.00 in0.0 mm 0.00 in0.0 mm
07:30 PM 37.9°F3.3°C 27.2°F-2.7°C 65% 1.2 mph N1.9 kmh N 2.3 mph3.7 kmh 30.37 in1028.4 mb - 0.00 in0.0 mm 0.00 in0.0 mm
07:35 PM 37.8°F3.2°C 27.4°F-2.6°C 66% 1.2 mph N1.9 kmh N 2.3 mph3.7 kmh 30.38 in1028.8 mb - 0.00 in0.0 mm 0.00 in0.0 mm
07:40 PM 37.6°F3.1°C 27.2°F-2.7°C 66% Calm Calm -- 30.38 in1028.8 mb - 0.00 in0.0 mm 0.00 in0.0 mm
07:45 PM 37.6°F3.1°C 27.2°F-2.7°C 66% 1.2 mph NNW1.9 kmh NNW 2.3 mph3.7 kmh 30.38 in1028.8 mb - 0.00 in0.0 mm 0.00 in0.0 mm
07:50 PM 37.6°F3.1°C 26.9°F-2.8°C 65% Calm Calm -- 30.39 in1029.1 mb - 0.00 in0.0 mm 0.00 in0.0 mm
07:55 PM 36.7°F2.6°C 27.5°F-2.5°C 69% Calm Calm -- 30.39 in1029.1 mb - 0.00 in0.0 mm 0.00 in0.0 mm
08:00 PM 36.1°F2.3°C 26.9°F-2.8°C 69% 1.2 mph N1.9 kmh N 1.2 mph1.9 kmh 30.39 in1029.1 mb - 0.00 in0.0 mm 0.00 in0.0 mm
08:10 PM 35.4°F1.9°C 26.6°F-3.0°C 70% Calm Calm -- 30.39 in1029.1 mb - 0.00 in0.0 mm 0.00 in0.0 mm
08:15 PM 35.4°F1.9°C 26.6°F-3.0°C 70% Calm Calm -- 30.39 in1029.1 mb - 0.00 in0.0 mm 0.00 in0.0 mm
08:20 PM 35.1°F1.7°C 26.3°F-3.2°C 70% Calm Calm -- 30.41 in1029.8 mb - 0.00 in0.0 mm 0.00 in0.0 mm
08:25 PM 34.8°F1.6°C 27.1°F-2.7°C 73% Calm Calm -- 30.40 in1029.5 mb - 0.00 in0.0 mm 0.00 in0.0 mm
08:30 PM 34.2°F1.2°C 27.1°F-2.7°C 75% 1.2 mph E1.9 kmh E 3.5 mph5.6 kmh 30.40 in1029.5 mb - 0.00 in0.0 mm 0.00 in0.0 mm
08:35 PM 34.2°F1.2°C 27.1°F-2.7°C 75% 1.2 mph E1.9 kmh E -- 30.41 in1029.8 mb - 0.00 in0.0 mm 0.00 in0.0 mm
08:40 PM 34.2°F1.2°C 27.1°F-2.7°C 75% Calm Calm -- 30.41 in1029.8 mb - 0.00 in0.0 mm 0.00 in0.0 mm
08:45 PM 33.4°F0.8°C 26.4°F-3.1°C 75% Calm Calm -- 30.41 in1029.8 mb - 0.00 in0.0 mm 0.00 in0.0 mm
08:50 PM 33.2°F0.7°C 26.1°F-3.3°C 75% Calm Calm -- 30.41 in1029.8 mb - 0.00 in0.0 mm 0.00 in0.0 mm
08:55 PM 32.5°F0.3°C 25.8°F-3.4°C 76% 1.2 mph NW1.9 kmh NW 1.2 mph1.9 kmh 30.41 in1029.8 mb - 0.00 in0.0 mm 0.00 in0.0 mm
09:00 PM 32.5°F0.3°C 26.4°F-3.1°C 78% 1.2 mph N1.9 kmh N 2.3 mph3.7 kmh 30.41 in1029.8 mb - 0.00 in0.0 mm 0.00 in0.0 mm
09:10 PM 32.5°F0.3°C 26.4°F-3.1°C 78% Calm Calm -- 30.42 in1030.1 mb - 0.00 in0.0 mm 0.00 in0.0 mm
09:15 PM 32.5°F0.3°C 26.4°F-3.1°C 78% Calm Calm -- 30.42 in1030.1 mb - 0.00 in0.0 mm 0.00 in0.0 mm
09:20 PM 32.5°F0.3°C 26.4°F-3.1°C 78% Calm Calm -- 30.42 in1030.1 mb - 0.00 in0.0 mm 0.00 in0.0 mm
09:25 PM 32.4°F0.2°C 26.3°F-3.2°C 78% Calm Calm 1.2 mph1.9 kmh 30.42 in1030.1 mb - 0.00 in0.0 mm 0.00 in0.0 mm
09:30 PM 32.2°F0.1°C 25.5°F-3.6°C 76% 1.2 mph ESE1.9 kmh ESE 1.2 mph1.9 kmh 30.42 in1030.1 mb - 0.00 in0.0 mm 0.00 in0.0 mm
09:35 PM 32.4°F0.2°C 25.6°F-3.6°C 76% 1.2 mph ESE1.9 kmh ESE 1.2 mph1.9 kmh 30.42 in1030.1 mb - 0.00 in0.0 mm 0.00 in0.0 mm
09:40 PM 32.4°F0.2°C 25.6°F-3.6°C 76% Calm Calm -- 30.43 in1030.5 mb - 0.00 in0.0 mm 0.00 in0.0 mm
09:45 PM 31.8°F-0.1°C 24.8°F-4.0°C 75% Calm Calm 1.2 mph1.9 kmh 30.43 in1030.5 mb - 0.00 in0.0 mm 0.00 in0.0 mm
09:50 PM 31.8°F-0.1°C 24.8°F-4.0°C 75% Calm Calm 1.2 mph1.9 kmh 30.43 in1030.5 mb - 0.00 in0.0 mm 0.00 in0.0 mm
09:55 PM 32.1°F0.1°C 25.1°F-3.8°C 75% Calm Calm -- 30.43 in1030.5 mb - 0.00 in0.0 mm 0.00 in0.0 mm
10:00 PM 31.6°F-0.2°C 24.6°F-4.1°C 75% Calm Calm 2.3 mph3.7 kmh 30.43 in1030.5 mb - 0.00 in0.0 mm 0.00 in0.0 mm
10:10 PM 32.2°F0.1°C 24.8°F-4.0°C 74% 1.2 mph ESE1.9 kmh ESE 1.2 mph1.9 kmh 30.43 in1030.5 mb - 0.00 in0.0 mm 0.00 in0.0 mm
10:15 PM 32.4°F0.2°C 25.0°F-3.9°C 74% 1.2 mph ESE1.9 kmh ESE 1.2 mph1.9 kmh 30.43 in1030.5 mb - 0.00 in0.0 mm 0.00 in0.0 mm
10:20 PM 32.4°F0.2°C 25.0°F-3.9°C 74% Calm Calm -- 30.43 in1030.5 mb - 0.00 in0.0 mm 0.00 in0.0 mm
10:25 PM 32.4°F0.2°C 25.0°F-3.9°C 74% 1.2 mph ESE1.9 kmh ESE 1.2 mph1.9 kmh 30.44 in1030.8 mb - 0.00 in0.0 mm 0.00 in0.0 mm
10:30 PM 32.4°F0.2°C 25.0°F-3.9°C 74% 1.2 mph NW1.9 kmh NW 3.5 mph5.6 kmh 30.44 in1030.8 mb - 0.00 in0.0 mm 0.00 in0.0 mm
10:35 PM 32.4°F0.2°C 25.3°F-3.7°C 75% Calm Calm -- 30.44 in1030.8 mb - 0.00 in0.0 mm 0.00 in0.0 mm
10:40 PM 32.2°F0.1°C 25.1°F-3.8°C 75% 1.2 mph WNW1.9 kmh WNW 2.3 mph3.7 kmh 30.44 in1030.8 mb - 0.00 in0.0 mm 0.00 in0.0 mm
10:45 PM 32.2°F0.1°C 25.1°F-3.8°C 75% 1.2 mph W1.9 kmh W 1.2 mph1.9 kmh 30.44 in1030.8 mb - 0.00 in0.0 mm 0.00 in0.0 mm
10:50 PM 31.8°F-0.1°C 24.8°F-4.0°C 75% 1.2 mph W1.9 kmh W 1.2 mph1.9 kmh 30.44 in1030.8 mb - 0.00 in0.0 mm 0.00 in0.0 mm
10:55 PM 31.8°F-0.1°C 24.8°F-4.0°C 75% 1.2 mph W1.9 kmh W 1.2 mph1.9 kmh 30.44 in1030.8 mb - 0.00 in0.0 mm 0.00 in0.0 mm
11:00 PM 31.6°F-0.2°C 24.6°F-4.1°C 75% Calm Calm -- 30.45 in1031.2 mb - 0.00 in0.0 mm 0.00 in0.0 mm
11:10 PM 31.2°F-0.4°C 25.1°F-3.8°C 78% Calm Calm -- 30.45 in1031.2 mb - 0.00 in0.0 mm 0.00 in0.0 mm
11:15 PM 30.7°F-0.7°C 25.0°F-3.9°C 79% Calm Calm -- 30.45 in1031.2 mb - 0.00 in0.0 mm 0.00 in0.0 mm
11:20 PM 30.6°F-0.8°C 25.4°F-3.7°C 81% Calm Calm -- 30.45 in1031.2 mb - 0.00 in0.0 mm 0.00 in0.0 mm
11:25 PM 30.0°F-1.1°C 25.5°F-3.6°C 83% Calm Calm -- 30.46 in1031.5 mb - 0.00 in0.0 mm 0.00 in0.0 mm
11:30 PM 29.8°F-1.2°C 25.0°F-3.9°C 82% Calm Calm -- 30.46 in1031.5 mb - 0.00 in0.0 mm 0.00 in0.0 mm
11:35 PM 29.7°F-1.3°C 25.7°F-3.5°C 85% Calm Calm -- 30.46 in1031.5 mb - 0.00 in0.0 mm 0.00 in0.0 mm
11:40 PM 29.1°F-1.6°C 25.5°F-3.6°C 86% Calm Calm -- 30.46 in1031.5 mb - 0.00 in0.0 mm 0.00 in0.0 mm
11:45 PM 28.8°F-1.8°C 25.1°F-3.8°C 86% Calm Calm -- 30.46 in1031.5 mb - 0.00 in0.0 mm 0.00 in0.0 mm
11:50 PM 28.6°F-1.9°C 25.5°F-3.6°C 88% Calm Calm -- 30.46 in1031.5 mb - 0.00 in0.0 mm 0.00 in0.0 mm
11:55 PM 28.2°F-2.1°C 25.1°F-3.8°C 88% Calm Calm -- 30.46 in1031.5 mb - 0.00 in0.0 mm 0.00 in0.0 mm